sensor_id;sensor_type;location;lat;lon;timestamp;pressure;altitude;pressure_sealevel;temperature;humidity
28167;BME280;15455;53.376;-6.262;2023-02-19T00:02:35;102257.94;;;8.11;100.00
28167;BME280;15455;53.376;-6.262;2023-02-19T00:05:21;102264.94;;;8.12;100.00
28167;BME280;15455;53.376;-6.262;2023-02-19T00:08:06;102267.53;;;8.12;100.00
28167;BME280;15455;53.376;-6.262;2023-02-19T00:10:51;102268.41;;;8.13;100.00
28167;BME280;15455;53.376;-6.262;2023-02-19T00:13:39;102270.94;;;8.11;100.00
28167;BME280;15455;53.376;-6.262;2023-02-19T00:16:33;102283.13;;;8.12;100.00
28167;BME280;15455;53.376;-6.262;2023-02-19T00:19:19;102277.84;;;8.09;100.00
28167;BME280;15455;53.376;-6.262;2023-02-19T00:22:05;102279.47;;;8.07;100.00
28167;BME280;15455;53.376;-6.262;2023-02-19T00:24:50;102279.28;;;8.01;100.00
28167;BME280;15455;53.376;-6.262;2023-02-19T00:27:36;102277.41;;;7.97;100.00
28167;BME280;15455;53.376;-6.262;2023-02-19T00:30:21;102292.03;;;7.93;100.00
28167;BME280;15455;53.376;-6.262;2023-02-19T00:33:07;102293.69;;;7.91;100.00
28167;BME280;15455;53.376;-6.262;2023-02-19T00:35:52;102293.78;;;7.94;100.00
28167;BME280;15455;53.376;-6.262;2023-02-19T00:38:39;102282.56;;;7.95;100.00
28167;BME280;15455;53.376;-6.262;2023-02-19T00:41:26;102285.16;;;7.95;100.00
28167;BME280;15455;53.376;-6.262;2023-02-19T00:44:12;102289.50;;;7.95;100.00
28167;BME280;15455;53.376;-6.262;2023-02-19T00:46:58;102286.00;;;7.94;100.00
28167;BME280;15455;53.376;-6.262;2023-02-19T00:49:43;102301.53;;;7.93;100.00
28167;BME280;15455;53.376;-6.262;2023-02-19T00:52:28;102309.38;;;7.94;100.00
28167;BME280;15455;53.376;-6.262;2023-02-19T00:55:14;102319.78;;;7.94;100.00
28167;BME280;15455;53.376;-6.262;2023-02-19T00:57:59;102314.66;;;7.96;100.00
28167;BME280;15455;53.376;-6.262;2023-02-19T01:00:44;102329.34;;;7.95;100.00
28167;BME280;15455;53.376;-6.262;2023-02-19T01:03:31;102321.50;;;7.94;100.00
28167;BME280;15455;53.376;-6.262;2023-02-19T01:06:18;102327.59;;;7.94;100.00
28167;BME280;15455;53.376;-6.262;2023-02-19T01:09:04;102321.47;;;7.92;100.00
28167;BME280;15455;53.376;-6.262;2023-02-19T01:11:51;102312.75;;;7.90;100.00
28167;BME280;15455;53.376;-6.262;2023-02-19T01:14:36;102317.03;;;7.90;100.00
28167;BME280;15455;53.376;-6.262;2023-02-19T01:17:22;102304.00;;;7.88;100.00
28167;BME280;15455;53.376;-6.262;2023-02-19T01:20:09;102303.06;;;7.86;100.00
28167;BME280;15455;53.376;-6.262;2023-02-19T01:22:54;102307.31;;;7.84;100.00
28167;BME280;15455;53.376;-6.262;2023-02-19T01:25:40;102322.84;;;7.82;100.00
28167;BME280;15455;53.376;-6.262;2023-02-19T01:28:26;102308.16;;;7.83;100.00
28167;BME280;15455;53.376;-6.262;2023-02-19T01:31:17;102317.56;;;7.79;100.00
28167;BME280;15455;53.376;-6.262;2023-02-19T01:34:03;102314.72;;;7.72;100.00
28167;BME280;15455;53.376;-6.262;2023-02-19T01:36:48;102323.88;;;7.62;100.00
28167;BME280;15455;53.376;-6.262;2023-02-19T01:39:34;102331.38;;;7.53;100.00
28167;BME280;15455;53.376;-6.262;2023-02-19T01:42:19;102329.19;;;7.41;100.00
28167;BME280;15455;53.376;-6.262;2023-02-19T01:45:25;102335.59;;;7.26;100.00
28167;BME280;15455;53.376;-6.262;2023-02-19T01:48:17;102349.19;;;7.19;100.00
28167;BME280;15455;53.376;-6.262;2023-02-19T01:51:08;102345.59;;;7.16;100.00
28167;BME280;15455;53.376;-6.262;2023-02-19T01:53:58;102344.66;;;7.13;100.00
28167;BME280;15455;53.376;-6.262;2023-02-19T01:56:45;102339.66;;;7.18;100.00
28167;BME280;15455;53.376;-6.262;2023-02-19T01:59:32;102330.25;;;7.22;100.00
28167;BME280;15455;53.376;-6.262;2023-02-19T02:02:18;102345.97;;;7.26;100.00
28167;BME280;15455;53.376;-6.262;2023-02-19T02:05:04;102333.97;;;7.28;100.00
28167;BME280;15455;53.376;-6.262;2023-02-19T02:07:53;102337.47;;;7.30;100.00
28167;BME280;15455;53.376;-6.262;2023-02-19T02:10:57;102333.19;;;7.31;100.00
28167;BME280;15455;53.376;-6.262;2023-02-19T02:13:44;102333.13;;;7.29;100.00
28167;BME280;15455;53.376;-6.262;2023-02-19T02:20:09;102322.84;;;7.08;100.00
28167;BME280;15455;53.376;-6.262;2023-02-19T02:23:21;102321.72;;;7.02;100.00
28167;BME280;15455;53.376;-6.262;2023-02-19T02:26:24;102349.22;;;6.97;100.00
28167;BME280;15455;53.376;-6.262;2023-02-19T02:32:25;102376.06;;;6.97;100.00
28167;BME280;15455;53.376;-6.262;2023-02-19T02:35:15;102374.41;;;6.99;100.00
28167;BME280;15455;53.376;-6.262;2023-02-19T02:38:07;102366.53;;;6.98;100.00
28167;BME280;15455;53.376;-6.262;2023-02-19T02:40:55;102373.44;;;6.97;100.00
28167;BME280;15455;53.376;-6.262;2023-02-19T02:43:42;102377.59;;;6.92;100.00
28167;BME280;15455;53.376;-6.262;2023-02-19T02:46:33;102383.44;;;6.86;100.00
28167;BME280;15455;53.376;-6.262;2023-02-19T02:49:20;102378.81;;;6.79;100.00
28167;BME280;15455;53.376;-6.262;2023-02-19T02:52:09;102380.41;;;6.75;100.00
28167;BME280;15455;53.376;-6.262;2023-02-19T02:55:15;102385.53;;;6.74;100.00
28167;BME280;15455;53.376;-6.262;2023-02-19T02:58:01;102388.00;;;6.71;100.00
28167;BME280;15455;53.376;-6.262;2023-02-19T03:00:52;102388.75;;;6.68;100.00
28167;BME280;15455;53.376;-6.262;2023-02-19T03:04:01;102393.13;;;6.69;100.00
28167;BME280;15455;53.376;-6.262;2023-02-19T03:06:48;102400.16;;;6.72;100.00
28167;BME280;15455;53.376;-6.262;2023-02-19T03:09:38;102396.59;;;6.70;100.00
28167;BME280;15455;53.376;-6.262;2023-02-19T03:12:28;102399.19;;;6.70;100.00
28167;BME280;15455;53.376;-6.262;2023-02-19T03:15:40;102406.75;;;6.64;100.00
28167;BME280;15455;53.376;-6.262;2023-02-19T03:18:49;102404.91;;;6.61;100.00
28167;BME280;15455;53.376;-6.262;2023-02-19T03:24:56;102397.63;;;6.52;100.00
28167;BME280;15455;53.376;-6.262;2023-02-19T03:28:04;102406.94;;;6.47;100.00
28167;BME280;15455;53.376;-6.262;2023-02-19T03:30:52;102411.13;;;6.43;100.00
28167;BME280;15455;53.376;-6.262;2023-02-19T03:33:40;102422.00;;;6.35;100.00
28167;BME280;15455;53.376;-6.262;2023-02-19T03:36:34;102420.84;;;6.28;100.00
28167;BME280;15455;53.376;-6.262;2023-02-19T03:39:22;102420.91;;;6.30;100.00
28167;BME280;15455;53.376;-6.262;2023-02-19T03:48:47;102424.97;;;6.23;100.00
28167;BME280;15455;53.376;-6.262;2023-02-19T03:51:40;102422.44;;;6.24;100.00
28167;BME280;15455;53.376;-6.262;2023-02-19T03:57:21;102416.09;;;6.18;100.00
28167;BME280;15455;53.376;-6.262;2023-02-19T04:06:28;102442.19;;;6.01;100.00
28167;BME280;15455;53.376;-6.262;2023-02-19T04:09:15;102449.34;;;6.07;100.00
28167;BME280;15455;53.376;-6.262;2023-02-19T04:12:07;102447.69;;;6.09;100.00
28167;BME280;15455;53.376;-6.262;2023-02-19T04:15:00;102459.16;;;6.14;100.00
28167;BME280;15455;53.376;-6.262;2023-02-19T04:17:54;102454.91;;;6.16;100.00
28167;BME280;15455;53.376;-6.262;2023-02-19T04:20:43;102455.03;;;6.19;100.00
28167;BME280;15455;53.376;-6.262;2023-02-19T04:23:34;102462.06;;;6.22;100.00
28167;BME280;15455;53.376;-6.262;2023-02-19T04:26:21;102456.06;;;6.23;100.00
28167;BME280;15455;53.376;-6.262;2023-02-19T04:29:07;102456.81;;;6.20;100.00
28167;BME280;15455;53.376;-6.262;2023-02-19T04:31:52;102462.00;;;6.20;100.00
28167;BME280;15455;53.376;-6.262;2023-02-19T04:34:37;102453.28;;;6.18;100.00
28167;BME280;15455;53.376;-6.262;2023-02-19T04:37:23;102451.63;;;6.20;100.00
28167;BME280;15455;53.376;-6.262;2023-02-19T04:40:09;102461.13;;;6.20;100.00
28167;BME280;15455;53.376;-6.262;2023-02-19T04:42:55;102467.19;;;6.20;100.00
28167;BME280;15455;53.376;-6.262;2023-02-19T04:45:40;102477.00;;;6.28;100.00
28167;BME280;15455;53.376;-6.262;2023-02-19T04:48:26;102479.09;;;6.36;100.00
28167;BME280;15455;53.376;-6.262;2023-02-19T04:51:11;102476.75;;;6.42;100.00
28167;BME280;15455;53.376;-6.262;2023-02-19T04:53:57;102478.72;;;6.48;100.00
28167;BME280;15455;53.376;-6.262;2023-02-19T04:56:43;102488.59;;;6.57;100.00
28167;BME280;15455;53.376;-6.262;2023-02-19T04:59:28;102486.22;;;6.62;100.00
28167;BME280;15455;53.376;-6.262;2023-02-19T05:02:14;102475.19;;;6.67;100.00
28167;BME280;15455;53.376;-6.262;2023-02-19T05:04:59;102474.44;;;6.70;100.00
28167;BME280;15455;53.376;-6.262;2023-02-19T05:07:45;102470.22;;;6.72;100.00
28167;BME280;15455;53.376;-6.262;2023-02-19T05:10:30;102462.44;;;6.72;100.00
28167;BME280;15455;53.376;-6.262;2023-02-19T05:13:15;102451.38;;;6.76;100.00
28167;BME280;15455;53.376;-6.262;2023-02-19T05:16:09;102446.28;;;6.79;100.00
28167;BME280;15455;53.376;-6.262;2023-02-19T05:18:58;102435.97;;;6.81;100.00
28167;BME280;15455;53.376;-6.262;2023-02-19T05:21:44;102436.91;;;6.83;100.00
28167;BME280;15455;53.376;-6.262;2023-02-19T05:24:29;102437.09;;;6.87;100.00
28167;BME280;15455;53.376;-6.262;2023-02-19T05:27:15;102439.81;;;6.90;100.00
28167;BME280;15455;53.376;-6.262;2023-02-19T05:30:01;102444.22;;;6.93;100.00
28167;BME280;15455;53.376;-6.262;2023-02-19T05:32:46;102447.69;;;6.92;100.00
28167;BME280;15455;53.376;-6.262;2023-02-19T05:35:32;102443.25;;;6.89;100.00
28167;BME280;15455;53.376;-6.262;2023-02-19T05:38:17;102421.50;;;6.87;100.00
28167;BME280;15455;53.376;-6.262;2023-02-19T05:41:17;102411.88;;;6.83;100.00
28167;BME280;15455;53.376;-6.262;2023-02-19T05:44:03;102403.88;;;6.78;100.00
28167;BME280;15455;53.376;-6.262;2023-02-19T05:46:49;102424.50;;;6.75;100.00
28167;BME280;15455;53.376;-6.262;2023-02-19T05:49:34;102407.16;;;6.74;100.00
28167;BME280;15455;53.376;-6.262;2023-02-19T05:52:20;102426.13;;;6.72;100.00
28167;BME280;15455;53.376;-6.262;2023-02-19T05:55:05;102422.59;;;6.71;100.00
28167;BME280;15455;53.376;-6.262;2023-02-19T05:57:51;102432.94;;;6.70;100.00
28167;BME280;15455;53.376;-6.262;2023-02-19T06:00:37;102424.28;;;6.69;100.00
28167;BME280;15455;53.376;-6.262;2023-02-19T06:03:22;102429.41;;;6.68;100.00
28167;BME280;15455;53.376;-6.262;2023-02-19T06:06:11;102409.47;;;6.67;100.00
28167;BME280;15455;53.376;-6.262;2023-02-19T06:08:57;102395.56;;;6.65;100.00
28167;BME280;15455;53.376;-6.262;2023-02-19T06:11:43;102395.34;;;6.60;100.00
28167;BME280;15455;53.376;-6.262;2023-02-19T06:14:29;102401.31;;;6.57;100.00
28167;BME280;15455;53.376;-6.262;2023-02-19T06:17:14;102396.06;;;6.56;100.00
28167;BME280;15455;53.376;-6.262;2023-02-19T06:20:00;102391.00;;;6.59;100.00
28167;BME280;15455;53.376;-6.262;2023-02-19T06:22:48;102395.28;;;6.58;100.00
28167;BME280;15455;53.376;-6.262;2023-02-19T06:25:34;102408.47;;;6.63;100.00
28167;BME280;15455;53.376;-6.262;2023-02-19T06:28:20;102379.03;;;6.63;100.00
28167;BME280;15455;53.376;-6.262;2023-02-19T06:31:06;102373.84;;;6.63;100.00
28167;BME280;15455;53.376;-6.262;2023-02-19T06:33:52;102375.63;;;6.64;100.00
28167;BME280;15455;53.376;-6.262;2023-02-19T06:36:39;102375.63;;;6.64;100.00
28167;BME280;15455;53.376;-6.262;2023-02-19T06:39:25;102379.13;;;6.66;100.00
28167;BME280;15455;53.376;-6.262;2023-02-19T06:42:10;102367.88;;;6.65;100.00
28167;BME280;15455;53.376;-6.262;2023-02-19T06:44:56;102376.47;;;6.64;100.00
28167;BME280;15455;53.376;-6.262;2023-02-19T06:47:41;102373.84;;;6.63;100.00
28167;BME280;15455;53.376;-6.262;2023-02-19T06:50:27;102366.97;;;6.63;100.00
28167;BME280;15455;53.376;-6.262;2023-02-19T06:53:12;102372.16;;;6.63;100.00
28167;BME280;15455;53.376;-6.262;2023-02-19T06:56:00;102386.06;;;6.65;100.00
28167;BME280;15455;53.376;-6.262;2023-02-19T06:58:46;102397.25;;;6.64;100.00
28167;BME280;15455;53.376;-6.262;2023-02-19T07:01:32;102394.75;;;6.67;100.00
28167;BME280;15455;53.376;-6.262;2023-02-19T07:04:18;102390.44;;;6.66;100.00
28167;BME280;15455;53.376;-6.262;2023-02-19T07:07:04;102389.66;;;6.69;100.00
28167;BME280;15455;53.376;-6.262;2023-02-19T07:09:50;102388.75;;;6.68;100.00
28167;BME280;15455;53.376;-6.262;2023-02-19T07:12:35;102389.66;;;6.69;100.00
28167;BME280;15455;53.376;-6.262;2023-02-19T07:15:20;102416.59;;;6.72;100.00
28167;BME280;15455;53.376;-6.262;2023-02-19T07:18:06;102427.00;;;6.72;100.00
28167;BME280;15455;53.376;-6.262;2023-02-19T07:20:54;102428.75;;;6.73;100.00
28167;BME280;15455;53.376;-6.262;2023-02-19T07:23:40;102427.09;;;6.75;100.00
28167;BME280;15455;53.376;-6.262;2023-02-19T07:26:26;102420.28;;;6.77;100.00
28167;BME280;15455;53.376;-6.262;2023-02-19T07:29:11;102421.97;;;6.77;100.00
28167;BME280;15455;53.376;-6.262;2023-02-19T07:31:57;102435.00;;;6.78;100.00
28167;BME280;15455;53.376;-6.262;2023-02-19T07:34:42;102426.53;;;6.83;100.00
28167;BME280;15455;53.376;-6.262;2023-02-19T07:37:27;102431.78;;;6.84;100.00
28167;BME280;15455;53.376;-6.262;2023-02-19T07:40:13;102434.44;;;6.86;100.00
28167;BME280;15455;53.376;-6.262;2023-02-19T07:42:58;102439.75;;;6.89;100.00
28167;BME280;15455;53.376;-6.262;2023-02-19T07:45:44;102439.81;;;6.90;100.00
28167;BME280;15455;53.376;-6.262;2023-02-19T07:48:30;102432.09;;;6.92;100.00
28167;BME280;15455;53.376;-6.262;2023-02-19T07:51:18;102437.34;;;6.93;100.00
28167;BME280;15455;53.376;-6.262;2023-02-19T07:54:03;102448.66;;;6.95;100.00
28167;BME280;15455;53.376;-6.262;2023-02-19T07:56:48;102438.41;;;6.99;100.00
28167;BME280;15455;53.376;-6.262;2023-02-19T07:59:34;102444.56;;;7.01;100.00
28167;BME280;15455;53.376;-6.262;2023-02-19T08:02:19;102444.41;;;6.98;100.00
28167;BME280;15455;53.376;-6.262;2023-02-19T08:05:24;102442.72;;;6.98;100.00
28167;BME280;15455;53.376;-6.262;2023-02-19T08:08:12;102448.84;;;7.00;100.00
28167;BME280;15455;53.376;-6.262;2023-02-19T08:11:00;102442.78;;;7.00;100.00
28167;BME280;15455;53.376;-6.262;2023-02-19T08:14:04;102443.66;;;7.00;100.00
28167;BME280;15455;53.376;-6.262;2023-02-19T08:16:50;102442.09;;;7.04;100.00
28167;BME280;15455;53.376;-6.262;2023-02-19T08:19:36;102447.34;;;7.05;100.00
28167;BME280;15455;53.376;-6.262;2023-02-19T08:22:21;102437.81;;;7.06;100.00
28167;BME280;15455;53.376;-6.262;2023-02-19T08:25:07;102448.25;;;7.07;100.00
28167;BME280;15455;53.376;-6.262;2023-02-19T08:27:53;102455.28;;;7.10;100.00
28167;BME280;15455;53.376;-6.262;2023-02-19T08:30:40;102453.63;;;7.12;100.00
28167;BME280;15455;53.376;-6.262;2023-02-19T08:33:29;102452.75;;;7.11;100.00
28167;BME280;15455;53.376;-6.262;2023-02-19T08:36:15;102451.03;;;7.12;100.00
28167;BME280;15455;53.376;-6.262;2023-02-19T08:39:00;102458.06;;;7.15;100.00
28167;BME280;15455;53.376;-6.262;2023-02-19T08:41:45;102460.72;;;7.16;100.00
28167;BME280;15455;53.376;-6.262;2023-02-19T08:44:32;102438.38;;;7.20;100.00
28167;BME280;15455;53.376;-6.262;2023-02-19T08:47:17;102426.25;;;7.20;100.00
28167;BME280;15455;53.376;-6.262;2023-02-19T08:50:05;102430.63;;;7.21;100.00
28167;BME280;15455;53.376;-6.262;2023-02-19T08:52:50;102432.38;;;7.21;100.00
28167;BME280;15455;53.376;-6.262;2023-02-19T08:55:37;102439.31;;;7.22;100.00
28167;BME280;15455;53.376;-6.262;2023-02-19T08:58:23;102428.16;;;7.24;100.00
28167;BME280;15455;53.376;-6.262;2023-02-19T09:01:11;102416.84;;;7.22;100.00
28167;BME280;15455;53.376;-6.262;2023-02-19T09:03:59;102422.09;;;7.24;100.00
28167;BME280;15455;53.376;-6.262;2023-02-19T09:06:44;102417.75;;;7.24;100.00
28167;BME280;15455;53.376;-6.262;2023-02-19T09:09:29;102429.94;;;7.25;100.00
28167;BME280;15455;53.376;-6.262;2023-02-19T09:12:15;102436.06;;;7.27;100.00
28167;BME280;15455;53.376;-6.262;2023-02-19T09:15:00;102442.22;;;7.29;100.00
28167;BME280;15455;53.376;-6.262;2023-02-19T09:17:51;102431.94;;;7.33;100.00
28167;BME280;15455;53.376;-6.262;2023-02-19T09:20:37;102438.88;;;7.34;100.00
28167;BME280;15455;53.376;-6.262;2023-02-19T09:23:22;102443.38;;;7.38;100.00
28167;BME280;15455;53.376;-6.262;2023-02-19T09:26:08;102424.53;;;7.43;100.00
28167;BME280;15455;53.376;-6.262;2023-02-19T09:28:55;102428.16;;;7.47;100.00
28167;BME280;15455;53.376;-6.262;2023-02-19T09:31:40;102434.44;;;7.54;100.00
28167;BME280;15455;53.376;-6.262;2023-02-19T09:34:27;102429.66;;;7.64;100.00
28167;BME280;15455;53.376;-6.262;2023-02-19T09:37:13;102434.19;;;7.70;100.00
28167;BME280;15455;53.376;-6.262;2023-02-19T09:39:58;102432.94;;;7.83;100.00
28167;BME280;15455;53.376;-6.262;2023-02-19T09:42:44;102425.56;;;7.95;100.00
28167;BME280;15455;53.376;-6.262;2023-02-19T09:45:29;102424.78;;;7.98;100.00
28167;BME280;15455;53.376;-6.262;2023-02-19T09:48:14;102436.34;;;8.06;100.00
28167;BME280;15455;53.376;-6.262;2023-02-19T09:51:00;102441.72;;;8.11;100.00
28167;BME280;15455;53.376;-6.262;2023-02-19T09:53:49;102444.34;;;8.12;100.00
28167;BME280;15455;53.376;-6.262;2023-02-19T09:56:36;102449.50;;;8.11;100.00
28167;BME280;15455;53.376;-6.262;2023-02-19T09:59:25;102458.34;;;8.16;100.00
28167;BME280;15455;53.376;-6.262;2023-02-19T10:05:00;102446.66;;;8.29;100.00
28167;BME280;15455;53.376;-6.262;2023-02-19T10:07:50;102457.22;;;8.33;100.00
28167;BME280;15455;53.376;-6.262;2023-02-19T10:10:37;102454.72;;;8.37;100.00
28167;BME280;15455;53.376;-6.262;2023-02-19T10:13:32;102455.72;;;8.40;100.00
28167;BME280;15455;53.376;-6.262;2023-02-19T10:16:21;102453.09;;;8.40;100.00
28167;BME280;15455;53.376;-6.262;2023-02-19T10:19:10;102454.09;;;8.44;100.00
28167;BME280;15455;53.376;-6.262;2023-02-19T10:21:56;102454.25;;;8.47;100.00
28167;BME280;15455;53.376;-6.262;2023-02-19T10:24:42;102447.50;;;8.54;100.00
28167;BME280;15455;53.376;-6.262;2023-02-19T10:27:29;102443.31;;;8.57;100.00
28167;BME280;15455;53.376;-6.262;2023-02-19T10:30:22;102436.47;;;8.61;100.00
28167;BME280;15455;53.376;-6.262;2023-02-19T10:33:12;102440.81;;;8.60;100.00
28167;BME280;15455;53.376;-6.262;2023-02-19T10:36:02;102447.06;;;8.65;100.00
28167;BME280;15455;53.376;-6.262;2023-02-19T10:38:49;102441.31;;;8.76;100.00
28167;BME280;15455;53.376;-6.262;2023-02-19T10:41:39;102435.50;;;8.84;100.00
28167;BME280;15455;53.376;-6.262;2023-02-19T10:44:31;102435.84;;;8.95;100.00
28167;BME280;15455;53.376;-6.262;2023-02-19T10:47:21;102436.94;;;9.02;100.00
28167;BME280;15455;53.376;-6.262;2023-02-19T10:50:30;102435.25;;;9.04;100.00
28167;BME280;15455;53.376;-6.262;2023-02-19T10:53:21;102432.44;;;8.98;100.00
28167;BME280;15455;53.376;-6.262;2023-02-19T10:56:14;102426.75;;;8.82;100.00
28167;BME280;15455;53.376;-6.262;2023-02-19T10:59:22;102429.16;;;8.76;100.00
28167;BME280;15455;53.376;-6.262;2023-02-19T11:02:16;102436.00;;;8.73;100.00
28167;BME280;15455;53.376;-6.262;2023-02-19T11:05:14;102442.91;;;8.72;100.00
28167;BME280;15455;53.376;-6.262;2023-02-19T11:08:00;102445.69;;;8.77;100.00
28167;BME280;15455;53.376;-6.262;2023-02-19T11:10:47;102444.16;;;8.83;100.00
28167;BME280;15455;53.376;-6.262;2023-02-19T11:13:33;102443.69;;;8.97;100.00
28167;BME280;15455;53.376;-6.262;2023-02-19T11:16:45;102439.47;;;9.00;100.00
28167;BME280;15455;53.376;-6.262;2023-02-19T11:19:38;102448.38;;;9.07;100.00
28167;BME280;15455;53.376;-6.262;2023-02-19T11:22:32;102427.59;;;9.09;100.00
28167;BME280;15455;53.376;-6.262;2023-02-19T11:25:20;102434.75;;;9.16;100.00
28167;BME280;15455;53.376;-6.262;2023-02-19T11:37:13;102414.94;;;9.51;100.00
28167;BME280;15455;53.376;-6.262;2023-02-19T11:39:59;102415.97;;;9.56;100.00
28167;BME280;15455;53.376;-6.262;2023-02-19T11:43:02;102423.97;;;9.63;100.00
28167;BME280;15455;53.376;-6.262;2023-02-19T11:46:00;102414.53;;;9.66;100.00
28167;BME280;15455;53.376;-6.262;2023-02-19T11:58:21;102396.25;;;9.98;100.00
28167;BME280;15455;53.376;-6.262;2023-02-19T12:04:47;102378.44;;;10.17;100.00
28167;BME280;15455;53.376;-6.262;2023-02-19T12:08:02;102363.00;;;10.24;100.00
28167;BME280;15455;53.376;-6.262;2023-02-19T12:11:10;102353.44;;;10.25;100.00
28167;BME280;15455;53.376;-6.262;2023-02-19T12:26:28;102326.56;;;10.28;100.00
28167;BME280;15455;53.376;-6.262;2023-02-19T12:38:35;102274.75;;;10.83;100.00
28167;BME280;15455;53.376;-6.262;2023-02-19T12:45:16;102247.34;;;10.64;100.00
28167;BME280;15455;53.376;-6.262;2023-02-19T12:54:22;102225.13;;;10.83;100.00
28167;BME280;15455;53.376;-6.262;2023-02-19T12:57:22;102213.16;;;10.94;100.00
28167;BME280;15455;53.376;-6.262;2023-02-19T13:03:21;102202.75;;;10.97;100.00
28167;BME280;15455;53.376;-6.262;2023-02-19T13:09:21;102199.66;;;11.17;100.00
28167;BME280;15455;53.376;-6.262;2023-02-19T13:12:45;102195.34;;;11.20;100.00
28167;BME280;15455;53.376;-6.262;2023-02-19T13:15:39;102186.78;;;11.29;100.00
28167;BME280;15455;53.376;-6.262;2023-02-19T13:18:31;102189.47;;;11.32;100.00
28167;BME280;15455;53.376;-6.262;2023-02-19T13:21:21;102173.00;;;11.38;100.00
28167;BME280;15455;53.376;-6.262;2023-02-19T13:24:31;102176.50;;;11.37;100.00
28167;BME280;15455;53.376;-6.262;2023-02-19T13:31:34;102191.50;;;11.00;100.00
28167;BME280;15455;53.376;-6.262;2023-02-19T13:37:00;102175.72;;;10.93;100.00
28167;BME280;15455;53.376;-6.262;2023-02-19T13:39:48;102175.56;;;10.87;100.00
28167;BME280;15455;53.376;-6.262;2023-02-19T13:42:35;102160.03;;;10.93;100.00
28167;BME280;15455;53.376;-6.262;2023-02-19T13:45:32;102180.78;;;10.87;100.00
28167;BME280;15455;53.376;-6.262;2023-02-19T14:06:21;102187.25;;;11.55;100.00
28167;BME280;15455;53.376;-6.262;2023-02-19T14:12:21;102173.06;;;11.42;100.00
28167;BME280;15455;53.376;-6.262;2023-02-19T14:18:41;102159.00;;;11.33;100.00
28167;BME280;15455;53.376;-6.262;2023-02-19T14:21:35;102159.97;;;11.39;100.00
28167;BME280;15455;53.376;-6.262;2023-02-19T14:24:21;102157.47;;;11.45;100.00
28167;BME280;15455;53.376;-6.262;2023-02-19T14:27:08;102156.41;;;11.34;100.00
28167;BME280;15455;53.376;-6.262;2023-02-19T14:29:53;102157.94;;;11.23;100.00
28167;BME280;15455;53.376;-6.262;2023-02-19T14:32:42;102146.84;;;11.36;100.00
28167;BME280;15455;53.376;-6.262;2023-02-19T14:35:36;102152.50;;;11.64;100.00
28167;BME280;15455;53.376;-6.262;2023-02-19T14:38:27;102140.34;;;11.66;100.00
28167;BME280;15455;53.376;-6.262;2023-02-19T14:41:15;102135.03;;;11.60;100.00
28167;BME280;15455;53.376;-6.262;2023-02-19T14:44:02;102125.34;;;11.53;100.00
28167;BME280;15455;53.376;-6.262;2023-02-19T14:46:53;102119.22;;;11.52;100.00
28167;BME280;15455;53.376;-6.262;2023-02-19T14:49:41;102125.56;;;11.70;100.00
28167;BME280;15455;53.376;-6.262;2023-02-19T14:52:43;102095.25;;;11.82;100.00
28167;BME280;15455;53.376;-6.262;2023-02-19T14:55:36;102078.66;;;11.79;100.00
28167;BME280;15455;53.376;-6.262;2023-02-19T14:58:32;102077.72;;;11.75;100.00
28167;BME280;15455;53.376;-6.262;2023-02-19T15:01:28;102073.69;;;11.96;100.00
28167;BME280;15455;53.376;-6.262;2023-02-19T15:04:35;102065.97;;;12.07;100.00
28167;BME280;15455;53.376;-6.262;2023-02-19T15:07:27;102055.25;;;11.91;100.00
28167;BME280;15455;53.376;-6.262;2023-02-19T15:10:14;102046.63;;;11.94;100.00
28167;BME280;15455;53.376;-6.262;2023-02-19T15:13:02;102038.03;;;12.07;100.00
28167;BME280;15455;53.376;-6.262;2023-02-19T15:15:52;102037.34;;;12.21;100.00
28167;BME280;15455;53.376;-6.262;2023-02-19T15:18:39;102046.13;;;12.27;100.00
28167;BME280;15455;53.376;-6.262;2023-02-19T15:21:27;102036.47;;;12.22;100.00
28167;BME280;15455;53.376;-6.262;2023-02-19T15:24:15;102039.06;;;12.19;100.00
28167;BME280;15455;53.376;-6.262;2023-02-19T15:27:02;102034.53;;;12.05;100.00
28167;BME280;15455;53.376;-6.262;2023-02-19T15:29:49;102038.91;;;12.03;100.00
28167;BME280;15455;53.376;-6.262;2023-02-19T15:32:37;102017.84;;;11.95;100.00
28167;BME280;15455;53.376;-6.262;2023-02-19T15:35:24;102026.47;;;11.90;100.00
28167;BME280;15455;53.376;-6.262;2023-02-19T15:38:11;102025.47;;;11.80;100.00
28167;BME280;15455;53.376;-6.262;2023-02-19T15:40:56;102023.72;;;11.77;100.00
28167;BME280;15455;53.376;-6.262;2023-02-19T15:43:47;102021.97;;;11.78;100.00
28167;BME280;15455;53.376;-6.262;2023-02-19T15:46:39;102018.38;;;11.73;100.00
28167;BME280;15455;53.376;-6.262;2023-02-19T15:49:38;102000.06;;;11.70;100.00
28167;BME280;15455;53.376;-6.262;2023-02-19T15:52:32;102011.28;;;11.62;100.00
28167;BME280;15455;53.376;-6.262;2023-02-19T16:01:25;102006.00;;;11.59;100.00
28167;BME280;15455;53.376;-6.262;2023-02-19T16:04:16;102005.25;;;11.68;100.00
28167;BME280;15455;53.376;-6.262;2023-02-19T16:07:02;101993.00;;;11.65;100.00
28167;BME280;15455;53.376;-6.262;2023-02-19T16:09:48;101992.94;;;11.58;100.00
28167;BME280;15455;53.376;-6.262;2023-02-19T16:12:33;101995.50;;;11.55;100.00
28167;BME280;15455;53.376;-6.262;2023-02-19T16:15:19;102000.66;;;11.49;100.00
28167;BME280;15455;53.376;-6.262;2023-02-19T16:18:05;101984.84;;;11.41;100.00
28167;BME280;15455;53.376;-6.262;2023-02-19T16:20:51;101981.31;;;11.37;100.00
28167;BME280;15455;53.376;-6.262;2023-02-19T16:23:41;101978.66;;;11.33;100.00
28167;BME280;15455;53.376;-6.262;2023-02-19T16:26:27;101980.31;;;11.29;100.00
28167;BME280;15455;53.376;-6.262;2023-02-19T16:29:21;101969.84;;;11.26;100.00
28167;BME280;15455;53.376;-6.262;2023-02-19T16:32:14;101962.84;;;11.25;100.00
28167;BME280;15455;53.376;-6.262;2023-02-19T16:35:01;101970.63;;;11.20;100.00
28167;BME280;15455;53.376;-6.262;2023-02-19T16:37:57;101939.19;;;11.16;100.00